sensor_id;sensor_type;location;lat;lon;timestamp;pressure;altitude;pressure_sealevel;temperature;humidity
64551;BME280;50945;44.472;-123.352;2023-04-06T00:01:54;100765.75;;;9.76;84.37
64551;BME280;50945;44.472;-123.352;2023-04-06T00:04:20;100760.78;;;9.80;84.43
64551;BME280;50945;44.472;-123.352;2023-04-06T00:06:46;100764.19;;;9.82;85.06
64551;BME280;50945;44.472;-123.352;2023-04-06T00:09:13;100755.16;;;9.81;84.52
64551;BME280;50945;44.472;-123.352;2023-04-06T00:11:39;100756.34;;;9.79;84.41
64551;BME280;50945;44.472;-123.352;2023-04-06T00:14:06;100751.25;;;9.76;84.18
64551;BME280;50945;44.472;-123.352;2023-04-06T00:16:33;100752.25;;;9.75;85.10
64551;BME280;50945;44.472;-123.352;2023-04-06T00:18:59;100740.81;;;9.71;84.76
64551;BME280;50945;44.472;-123.352;2023-04-06T00:21:25;100743.88;;;9.68;84.51
64551;BME280;50945;44.472;-123.352;2023-04-06T00:23:51;100739.63;;;9.65;84.76
64551;BME280;50945;44.472;-123.352;2023-04-06T00:26:17;100742.69;;;9.62;84.83
64551;BME280;50945;44.472;-123.352;2023-04-06T00:28:44;100746.63;;;9.60;85.36
64551;BME280;50945;44.472;-123.352;2023-04-06T00:31:11;100738.44;;;9.60;85.41
64551;BME280;50945;44.472;-123.352;2023-04-06T00:33:38;100738.59;;;9.58;85.12
64551;BME280;50945;44.472;-123.352;2023-04-06T00:36:04;100740.66;;;9.56;85.15
64551;BME280;50945;44.472;-123.352;2023-04-06T00:38:31;100734.50;;;9.54;85.05
64551;BME280;50945;44.472;-123.352;2023-04-06T00:40:57;100735.00;;;9.49;85.55
64551;BME280;50945;44.472;-123.352;2023-04-06T00:43:24;100730.03;;;9.45;85.22
64551;BME280;50945;44.472;-123.352;2023-04-06T00:45:50;100727.84;;;9.40;85.50
64551;BME280;50945;44.472;-123.352;2023-04-06T00:48:16;100725.94;;;9.32;85.19
64551;BME280;50945;44.472;-123.352;2023-04-06T00:50:42;100719.78;;;9.30;85.74
64551;BME280;50945;44.472;-123.352;2023-04-06T00:53:09;100721.00;;;9.28;85.50
64551;BME280;50945;44.472;-123.352;2023-04-06T00:55:35;100712.28;;;9.24;85.47
64551;BME280;50945;44.472;-123.352;2023-04-06T00:58:02;100713.66;;;9.20;85.25
64551;BME280;50945;44.472;-123.352;2023-04-06T01:00:29;100707.31;;;9.11;85.22
64551;BME280;50945;44.472;-123.352;2023-04-06T01:02:56;100707.81;;;9.07;85.77
64551;BME280;50945;44.472;-123.352;2023-04-06T01:05:22;100700.84;;;9.04;85.84
64551;BME280;50945;44.472;-123.352;2023-04-06T01:07:48;100701.16;;;9.01;85.51
64551;BME280;50945;44.472;-123.352;2023-04-06T01:10:25;100691.78;;;8.96;86.18
64551;BME280;50945;44.472;-123.352;2023-04-06T01:12:52;100697.72;;;8.91;86.27
64551;BME280;50945;44.472;-123.352;2023-04-06T01:15:19;100698.19;;;8.86;86.17
64551;BME280;50945;44.472;-123.352;2023-04-06T01:17:46;100694.09;;;8.82;86.20
64551;BME280;50945;44.472;-123.352;2023-04-06T01:20:13;100681.81;;;8.78;85.89
64551;BME280;50945;44.472;-123.352;2023-04-06T01:22:39;100677.91;;;8.72;85.68
64551;BME280;50945;44.472;-123.352;2023-04-06T01:25:06;100691.00;;;8.69;85.71
64551;BME280;50945;44.472;-123.352;2023-04-06T01:27:32;100680.59;;;8.64;86.54
64551;BME280;50945;44.472;-123.352;2023-04-06T01:30:02;100684.50;;;8.62;86.79
64551;BME280;50945;44.472;-123.352;2023-04-06T01:32:28;100681.25;;;8.58;86.26
64551;BME280;50945;44.472;-123.352;2023-04-06T01:34:55;100675.09;;;8.56;86.71
64551;BME280;50945;44.472;-123.352;2023-04-06T01:37:21;100670.66;;;8.55;86.47
64551;BME280;50945;44.472;-123.352;2023-04-06T01:39:47;100664.53;;;8.53;87.02
64551;BME280;50945;44.472;-123.352;2023-04-06T01:42:13;100660.94;;;8.52;86.91
64551;BME280;50945;44.472;-123.352;2023-04-06T01:44:41;100658.38;;;8.51;86.72
64551;BME280;50945;44.472;-123.352;2023-04-06T01:47:07;100653.97;;;8.50;86.59
64551;BME280;50945;44.472;-123.352;2023-04-06T01:49:33;100658.03;;;8.46;86.64
64551;BME280;50945;44.472;-123.352;2023-04-06T01:51:59;100656.47;;;8.43;86.36
64551;BME280;50945;44.472;-123.352;2023-04-06T01:54:25;100651.50;;;8.38;86.59
64551;BME280;50945;44.472;-123.352;2023-04-06T01:56:52;100648.94;;;8.37;87.17
64551;BME280;50945;44.472;-123.352;2023-04-06T01:59:20;100645.69;;;8.33;86.96
64551;BME280;50945;44.472;-123.352;2023-04-06T02:01:46;100639.72;;;8.30;87.59
64551;BME280;50945;44.472;-123.352;2023-04-06T02:04:12;100641.72;;;8.28;87.58
64551;BME280;50945;44.472;-123.352;2023-04-06T02:06:39;100628.28;;;8.26;88.04
64551;BME280;50945;44.472;-123.352;2023-04-06T02:09:06;100623.84;;;8.25;87.82
64551;BME280;50945;44.472;-123.352;2023-04-06T02:11:33;100633.22;;;8.23;88.28
64551;BME280;50945;44.472;-123.352;2023-04-06T02:13:59;100638.97;;;8.19;88.42
64551;BME280;50945;44.472;-123.352;2023-04-06T02:16:26;100629.25;;;8.17;88.32
64551;BME280;50945;44.472;-123.352;2023-04-06T02:18:52;100626.00;;;8.13;88.71
64551;BME280;50945;44.472;-123.352;2023-04-06T02:21:21;100622.75;;;8.10;88.88
64551;BME280;50945;44.472;-123.352;2023-04-06T02:23:47;100616.75;;;8.06;88.97
64551;BME280;50945;44.472;-123.352;2023-04-06T02:26:15;100615.06;;;8.05;89.34
64551;BME280;50945;44.472;-123.352;2023-04-06T02:28:42;100609.94;;;8.02;89.22
64551;BME280;50945;44.472;-123.352;2023-04-06T02:31:08;100613.88;;;7.99;89.38
64551;BME280;50945;44.472;-123.352;2023-04-06T02:33:36;100613.13;;;7.97;89.39
64551;BME280;50945;44.472;-123.352;2023-04-06T02:36:03;100611.63;;;7.95;89.85
64551;BME280;50945;44.472;-123.352;2023-04-06T02:38:29;100607.34;;;7.92;92.92
64551;BME280;50945;44.472;-123.352;2023-04-06T02:40:56;100608.50;;;7.90;90.77
64551;BME280;50945;44.472;-123.352;2023-04-06T02:43:22;100603.91;;;7.90;90.83
64551;BME280;50945;44.472;-123.352;2023-04-06T02:45:48;100599.50;;;7.89;90.45
64551;BME280;50945;44.472;-123.352;2023-04-06T02:48:14;100596.94;;;7.88;90.59
64551;BME280;50945;44.472;-123.352;2023-04-06T02:50:40;100591.66;;;7.86;90.52
64551;BME280;50945;44.472;-123.352;2023-04-06T02:53:07;100593.53;;;7.86;90.62
64551;BME280;50945;44.472;-123.352;2023-04-06T02:55:34;100603.53;;;7.85;90.89
64551;BME280;50945;44.472;-123.352;2023-04-06T02:58:00;100584.69;;;7.84;91.14
64551;BME280;50945;44.472;-123.352;2023-04-06T03:00:27;100597.41;;;7.83;91.18
64551;BME280;50945;44.472;-123.352;2023-04-06T03:02:53;100589.25;;;7.83;91.07
64551;BME280;50945;44.472;-123.352;2023-04-06T03:05:19;100591.97;;;7.83;91.31
64551;BME280;50945;44.472;-123.352;2023-04-06T03:07:45;100590.28;;;7.82;91.36
64551;BME280;50945;44.472;-123.352;2023-04-06T03:10:12;100586.88;;;7.80;91.55
64551;BME280;50945;44.472;-123.352;2023-04-06T03:12:41;100581.44;;;7.80;91.17
64551;BME280;50945;44.472;-123.352;2023-04-06T03:15:08;100578.88;;;7.78;91.33
64551;BME280;50945;44.472;-123.352;2023-04-06T03:17:34;100580.03;;;7.76;94.76
64551;BME280;50945;44.472;-123.352;2023-04-06T03:20:00;100583.09;;;7.73;92.22
64551;BME280;50945;44.472;-123.352;2023-04-06T03:22:26;100584.09;;;7.72;92.14
64551;BME280;50945;44.472;-123.352;2023-04-06T03:24:53;100579.50;;;7.72;92.53
64551;BME280;50945;44.472;-123.352;2023-04-06T03:27:19;100579.66;;;7.71;92.03
64551;BME280;50945;44.472;-123.352;2023-04-06T03:29:46;100580.69;;;7.70;92.40
64551;BME280;50945;44.472;-123.352;2023-04-06T03:32:13;100580.84;;;7.68;92.67
64551;BME280;50945;44.472;-123.352;2023-04-06T03:34:43;100581.00;;;7.67;91.79
64551;BME280;50945;44.472;-123.352;2023-04-06T03:37:09;100574.88;;;7.65;91.92
64551;BME280;50945;44.472;-123.352;2023-04-06T03:39:35;100582.19;;;7.64;92.46
64551;BME280;50945;44.472;-123.352;2023-04-06T03:42:01;100573.13;;;7.64;92.05
64551;BME280;50945;44.472;-123.352;2023-04-06T03:44:28;100580.47;;;7.63;92.62
64551;BME280;50945;44.472;-123.352;2023-04-06T03:46:54;100576.91;;;7.63;92.47
64551;BME280;50945;44.472;-123.352;2023-04-06T03:49:20;100577.91;;;7.61;92.93
64551;BME280;50945;44.472;-123.352;2023-04-06T03:51:47;100575.31;;;7.60;92.92
64551;BME280;50945;44.472;-123.352;2023-04-06T03:54:13;100570.03;;;7.58;92.74
64551;BME280;50945;44.472;-123.352;2023-04-06T03:56:39;100569.34;;;7.56;92.80
64551;BME280;50945;44.472;-123.352;2023-04-06T03:59:06;100573.09;;;7.55;92.55
64551;BME280;50945;44.472;-123.352;2023-04-06T04:01:33;100577.84;;;7.53;92.89
64551;BME280;50945;44.472;-123.352;2023-04-06T04:03:59;100571.53;;;7.53;93.33
64551;BME280;50945;44.472;-123.352;2023-04-06T04:06:25;100566.97;;;7.53;93.22
64551;BME280;50945;44.472;-123.352;2023-04-06T04:08:52;100560.66;;;7.53;93.57
64551;BME280;50945;44.472;-123.352;2023-04-06T04:11:19;100567.13;;;7.52;93.59
64551;BME280;50945;44.472;-123.352;2023-04-06T04:13:46;100566.25;;;7.51;93.57
64551;BME280;50945;44.472;-123.352;2023-04-06T04:16:13;100564.56;;;7.50;93.92
64551;BME280;50945;44.472;-123.352;2023-04-06T04:18:39;100561.16;;;7.48;93.53
64551;BME280;50945;44.472;-123.352;2023-04-06T04:21:07;100556.72;;;7.47;93.59
64551;BME280;50945;44.472;-123.352;2023-04-06T04:23:33;100563.19;;;7.46;93.79
64551;BME280;50945;44.472;-123.352;2023-04-06T04:26:03;100558.75;;;7.45;94.02
64551;BME280;50945;44.472;-123.352;2023-04-06T04:28:32;100564.34;;;7.43;94.19
64551;BME280;50945;44.472;-123.352;2023-04-06T04:30:58;100560.78;;;7.43;94.76
64551;BME280;50945;44.472;-123.352;2023-04-06T04:33:25;100566.22;;;7.43;94.90
64551;BME280;50945;44.472;-123.352;2023-04-06T04:35:51;100556.34;;;7.42;94.81
64551;BME280;50945;44.472;-123.352;2023-04-06T04:38:18;100560.25;;;7.39;94.63
64551;BME280;50945;44.472;-123.352;2023-04-06T04:40:44;100559.38;;;7.39;94.03
64551;BME280;50945;44.472;-123.352;2023-04-06T04:43:12;100555.97;;;7.37;94.37
64551;BME280;50945;44.472;-123.352;2023-04-06T04:45:38;100554.44;;;7.34;94.26
64551;BME280;50945;44.472;-123.352;2023-04-06T04:48:07;100558.00;;;7.35;94.40
64551;BME280;50945;44.472;-123.352;2023-04-06T04:50:34;100556.31;;;7.34;98.93
64551;BME280;50945;44.472;-123.352;2023-04-06T04:53:03;100555.44;;;7.33;95.35
64551;BME280;50945;44.472;-123.352;2023-04-06T04:55:34;100551.88;;;7.33;94.50
64551;BME280;50945;44.472;-123.352;2023-04-06T04:58:03;100548.44;;;7.31;95.00
64551;BME280;50945;44.472;-123.352;2023-04-06T05:00:30;100545.03;;;7.29;95.14
64551;BME280;50945;44.472;-123.352;2023-04-06T05:02:56;100542.47;;;7.27;95.55
64551;BME280;50945;44.472;-123.352;2023-04-06T05:05:22;100542.47;;;7.27;95.22
64551;BME280;50945;44.472;-123.352;2023-04-06T05:07:48;100546.88;;;7.28;95.61
64551;BME280;50945;44.472;-123.352;2023-04-06T05:10:15;100545.88;;;7.29;95.77
64551;BME280;50945;44.472;-123.352;2023-04-06T05:12:41;100539.44;;;7.30;95.46
64551;BME280;50945;44.472;-123.352;2023-04-06T05:15:08;100537.72;;;7.29;96.17
64551;BME280;50945;44.472;-123.352;2023-04-06T05:17:35;100542.16;;;7.30;96.07
64551;BME280;50945;44.472;-123.352;2023-04-06T05:20:01;100537.56;;;7.31;96.39
64551;BME280;50945;44.472;-123.352;2023-04-06T05:22:27;100544.88;;;7.30;95.75
64551;BME280;50945;44.472;-123.352;2023-04-06T05:24:53;100541.13;;;7.31;95.49
64551;BME280;50945;44.472;-123.352;2023-04-06T05:27:20;100543.84;;;7.31;95.72
64551;BME280;50945;44.472;-123.352;2023-04-06T05:29:46;100538.41;;;7.31;96.02
64551;BME280;50945;44.472;-123.352;2023-04-06T05:32:12;100537.25;;;7.34;96.09
64551;BME280;50945;44.472;-123.352;2023-04-06T05:34:39;100529.09;;;7.34;96.11
64551;BME280;50945;44.472;-123.352;2023-04-06T05:37:05;100533.66;;;7.33;96.27
64551;BME280;50945;44.472;-123.352;2023-04-06T05:39:32;100524.50;;;7.34;96.07
64551;BME280;50945;44.472;-123.352;2023-04-06T05:41:58;100525.34;;;7.35;96.12
64551;BME280;50945;44.472;-123.352;2023-04-06T05:44:24;100520.94;;;7.34;95.93
64551;BME280;50945;44.472;-123.352;2023-04-06T05:46:50;100522.78;;;7.33;95.49
64551;BME280;50945;44.472;-123.352;2023-04-06T05:49:17;100511.91;;;7.33;95.71
64551;BME280;50945;44.472;-123.352;2023-04-06T05:51:43;100514.63;;;7.33;95.53
64551;BME280;50945;44.472;-123.352;2023-04-06T05:54:09;100508.34;;;7.33;94.74
64551;BME280;50945;44.472;-123.352;2023-04-06T05:56:35;100504.63;;;7.34;95.57
64551;BME280;50945;44.472;-123.352;2023-04-06T05:59:01;100504.78;;;7.32;95.41
64551;BME280;50945;44.472;-123.352;2023-04-06T06:01:29;100503.06;;;7.31;95.52
64551;BME280;50945;44.472;-123.352;2023-04-06T06:03:55;100500.50;;;7.30;95.52
64551;BME280;50945;44.472;-123.352;2023-04-06T06:06:22;100499.66;;;7.29;95.18
64551;BME280;50945;44.472;-123.352;2023-04-06T06:08:48;100500.50;;;7.30;95.33
64551;BME280;50945;44.472;-123.352;2023-04-06T06:11:17;100498.81;;;7.29;95.42
64551;BME280;50945;44.472;-123.352;2023-04-06T06:13:43;100501.53;;;7.29;95.70
64551;BME280;50945;44.472;-123.352;2023-04-06T06:16:11;100498.97;;;7.27;95.96
64551;BME280;50945;44.472;-123.352;2023-04-06T06:18:37;100492.69;;;7.27;95.51
64551;BME280;50945;44.472;-123.352;2023-04-06T06:21:03;100490.13;;;7.25;95.49
64551;BME280;50945;44.472;-123.352;2023-04-06T06:23:29;100495.56;;;7.25;95.75
64551;BME280;50945;44.472;-123.352;2023-04-06T06:25:56;100493.69;;;7.26;95.69
64551;BME280;50945;44.472;-123.352;2023-04-06T06:28:24;100495.56;;;7.25;96.03
64551;BME280;50945;44.472;-123.352;2023-04-06T06:30:51;100490.13;;;7.25;95.45
64551;BME280;50945;44.472;-123.352;2023-04-06T06:33:17;100490.97;;;7.26;96.00
64551;BME280;50945;44.472;-123.352;2023-04-06T06:35:43;100488.41;;;7.24;96.38
64551;BME280;50945;44.472;-123.352;2023-04-06T06:38:09;100493.00;;;7.23;95.64
64551;BME280;50945;44.472;-123.352;2023-04-06T06:40:35;100479.41;;;7.23;95.65
64551;BME280;50945;44.472;-123.352;2023-04-06T06:43:02;100490.28;;;7.23;95.76
64551;BME280;50945;44.472;-123.352;2023-04-06T06:45:28;100477.69;;;7.22;96.26
64551;BME280;50945;44.472;-123.352;2023-04-06T06:47:55;100473.28;;;7.21;96.38
64551;BME280;50945;44.472;-123.352;2023-04-06T06:50:21;100474.28;;;7.20;95.71
64551;BME280;50945;44.472;-123.352;2023-04-06T06:52:47;100474.28;;;7.20;96.15
64551;BME280;50945;44.472;-123.352;2023-04-06T06:55:13;100480.56;;;7.21;96.09
64551;BME280;50945;44.472;-123.352;2023-04-06T06:57:40;100472.41;;;7.21;97.82
64551;BME280;50945;44.472;-123.352;2023-04-06T07:00:09;100478.72;;;7.21;96.23
64551;BME280;50945;44.472;-123.352;2023-04-06T07:02:35;100471.41;;;7.22;95.73
64551;BME280;50945;44.472;-123.352;2023-04-06T07:05:02;100469.53;;;7.22;95.58
64551;BME280;50945;44.472;-123.352;2023-04-06T07:07:28;100462.41;;;7.21;98.30
64551;BME280;50945;44.472;-123.352;2023-04-06T07:09:54;100470.41;;;7.23;96.51
64551;BME280;50945;44.472;-123.352;2023-04-06T07:12:22;100473.13;;;7.23;95.82
64551;BME280;50945;44.472;-123.352;2023-04-06T07:14:49;100460.38;;;7.23;95.33
64551;BME280;50945;44.472;-123.352;2023-04-06T07:17:15;100464.78;;;7.24;95.62
64551;BME280;50945;44.472;-123.352;2023-04-06T07:19:41;100461.91;;;7.26;95.45
64551;BME280;50945;44.472;-123.352;2023-04-06T07:22:07;100461.06;;;7.26;95.21
64551;BME280;50945;44.472;-123.352;2023-04-06T07:24:34;100450.19;;;7.26;94.89
64551;BME280;50945;44.472;-123.352;2023-04-06T07:27:00;100451.19;;;7.24;95.29
64551;BME280;50945;44.472;-123.352;2023-04-06T07:29:27;100445.75;;;7.24;95.63
64551;BME280;50945;44.472;-123.352;2023-04-06T07:31:54;100454.78;;;7.25;95.40
64551;BME280;50945;44.472;-123.352;2023-04-06T07:34:20;100454.09;;;7.23;98.80
64551;BME280;50945;44.472;-123.352;2023-04-06T07:36:46;100446.78;;;7.23;96.43
64551;BME280;50945;44.472;-123.352;2023-04-06T07:39:13;100459.53;;;7.23;96.39
64551;BME280;50945;44.472;-123.352;2023-04-06T07:41:39;100446.94;;;7.22;96.03
64551;BME280;50945;44.472;-123.352;2023-04-06T07:44:05;100450.66;;;7.21;96.11
64551;BME280;50945;44.472;-123.352;2023-04-06T07:46:31;100453.38;;;7.21;96.48
64551;BME280;50945;44.472;-123.352;2023-04-06T07:48:59;100447.09;;;7.20;96.55
64551;BME280;50945;44.472;-123.352;2023-04-06T07:51:26;100442.66;;;7.19;96.40
64551;BME280;50945;44.472;-123.352;2023-04-06T07:53:53;100445.38;;;7.19;96.36
64551;BME280;50945;44.472;-123.352;2023-04-06T07:56:19;100430.94;;;7.19;96.46
64551;BME280;50945;44.472;-123.352;2023-04-06T07:58:46;100439.41;;;7.16;99.00
64551;BME280;50945;44.472;-123.352;2023-04-06T08:01:12;100434.16;;;7.14;97.49
64551;BME280;50945;44.472;-123.352;2023-04-06T08:03:39;100435.16;;;7.13;96.75
64551;BME280;50945;44.472;-123.352;2023-04-06T08:06:05;100442.31;;;7.14;96.50
64551;BME280;50945;44.472;-123.352;2023-04-06T08:08:31;100435.16;;;7.13;96.91
64551;BME280;50945;44.472;-123.352;2023-04-06T08:10:58;100432.44;;;7.13;96.77
64551;BME280;50945;44.472;-123.352;2023-04-06T08:13:24;100424.28;;;7.13;96.42
64551;BME280;50945;44.472;-123.352;2023-04-06T08:15:50;100428.72;;;7.14;96.63
64551;BME280;50945;44.472;-123.352;2023-04-06T08:18:16;100422.41;;;7.14;96.79
64551;BME280;50945;44.472;-123.352;2023-04-06T08:20:42;100427.84;;;7.14;96.98
64551;BME280;50945;44.472;-123.352;2023-04-06T08:23:08;100412.56;;;7.13;96.76
64551;BME280;50945;44.472;-123.352;2023-04-06T08:25:35;100412.56;;;7.13;96.52
64551;BME280;50945;44.472;-123.352;2023-04-06T08:28:02;100410.00;;;7.11;99.30
64551;BME280;50945;44.472;-123.352;2023-04-06T08:30:29;100414.59;;;7.11;97.54
64551;BME280;50945;44.472;-123.352;2023-04-06T08:32:55;100402.53;;;7.13;96.54
64551;BME280;50945;44.472;-123.352;2023-04-06T08:35:21;100406.09;;;7.14;96.41
64551;BME280;50945;44.472;-123.352;2023-04-06T08:37:48;100405.25;;;7.13;96.48
64551;BME280;50945;44.472;-123.352;2023-04-06T08:40:14;100403.38;;;7.14;96.48
64551;BME280;50945;44.472;-123.352;2023-04-06T08:42:44;100393.38;;;7.14;96.03
64551;BME280;50945;44.472;-123.352;2023-04-06T08:45:13;100396.94;;;7.15;96.05
64551;BME280;50945;44.472;-123.352;2023-04-06T08:47:41;100388.78;;;7.15;96.56
64551;BME280;50945;44.472;-123.352;2023-04-06T08:50:08;100382.50;;;7.14;98.90
64551;BME280;50945;44.472;-123.352;2023-04-06T08:52:34;100378.06;;;7.13;96.83
64551;BME280;50945;44.472;-123.352;2023-04-06T08:55:01;100384.34;;;7.14;99.15
64551;BME280;50945;44.472;-123.352;2023-04-06T08:57:27;100375.19;;;7.15;96.70
64551;BME280;50945;44.472;-123.352;2023-04-06T08:59:55;100376.03;;;7.15;96.22
64551;BME280;50945;44.472;-123.352;2023-04-06T09:02:22;100374.34;;;7.14;96.21
64551;BME280;50945;44.472;-123.352;2023-04-06T09:04:49;100370.59;;;7.15;96.46
64551;BME280;50945;44.472;-123.352;2023-04-06T09:07:18;100360.56;;;7.16;96.45
64551;BME280;50945;44.472;-123.352;2023-04-06T09:09:44;100360.56;;;7.16;96.00
64551;BME280;50945;44.472;-123.352;2023-04-06T09:12:27;100363.28;;;7.16;95.77
64551;BME280;50945;44.472;-123.352;2023-04-06T09:14:54;100345.28;;;7.15;96.57
64551;BME280;50945;44.472;-123.352;2023-04-06T09:17:22;100346.28;;;7.14;96.29
64551;BME280;50945;44.472;-123.352;2023-04-06T09:19:49;100342.72;;;7.13;96.02
64551;BME280;50945;44.472;-123.352;2023-04-06T09:22:16;100349.16;;;7.12;96.63
64551;BME280;50945;44.472;-123.352;2023-04-06T09:24:43;100332.16;;;7.10;98.85
64551;BME280;50945;44.472;-123.352;2023-04-06T09:27:10;100334.19;;;7.08;96.66
64551;BME280;50945;44.472;-123.352;2023-04-06T09:29:36;100333.34;;;7.08;96.45
64551;BME280;50945;44.472;-123.352;2023-04-06T09:32:04;100331.47;;;7.08;96.91
64551;BME280;50945;44.472;-123.352;2023-04-06T09:34:31;100322.47;;;7.08;96.68
64551;BME280;50945;44.472;-123.352;2023-04-06T09:36:57;100330.78;;;7.06;96.36
64551;BME280;50945;44.472;-123.352;2023-04-06T09:39:24;100327.06;;;7.07;96.52
64551;BME280;50945;44.472;-123.352;2023-04-06T09:41:52;100319.09;;;7.06;96.52
64551;BME280;50945;44.472;-123.352;2023-04-06T09:44:20;100310.06;;;7.05;97.17
64551;BME280;50945;44.472;-123.352;2023-04-06T09:46:47;100312.97;;;7.03;97.12
64551;BME280;50945;44.472;-123.352;2023-04-06T09:49:13;100307.69;;;7.02;100.00
64551;BME280;50945;44.472;-123.352;2023-04-06T09:51:41;100307.84;;;7.00;97.90
64551;BME280;50945;44.472;-123.352;2023-04-06T09:54:11;100303.41;;;6.99;97.57
64551;BME280;50945;44.472;-123.352;2023-04-06T09:57:06;100296.97;;;7.00;97.80
64551;BME280;50945;44.472;-123.352;2023-04-06T10:02:09;100300.53;;;7.01;97.48
64551;BME280;50945;44.472;-123.352;2023-04-06T10:05:11;100299.69;;;7.00;97.57
64551;BME280;50945;44.472;-123.352;2023-04-06T10:07:35;100293.38;;;7.00;97.47
64551;BME280;50945;44.472;-123.352;2023-04-06T10:10:02;100292.38;;;7.01;97.21
64551;BME280;50945;44.472;-123.352;2023-04-06T10:12:29;100280.66;;;7.00;97.32
64551;BME280;50945;44.472;-123.352;2023-04-06T10:14:56;100291.38;;;7.02;97.47
64551;BME280;50945;44.472;-123.352;2023-04-06T10:17:22;100285.06;;;7.01;97.39
64551;BME280;50945;44.472;-123.352;2023-04-06T10:20:16;100275.22;;;7.00;98.00
64551;BME280;50945;44.472;-123.352;2023-04-06T10:23:11;100275.38;;;6.99;98.08
64551;BME280;50945;44.472;-123.352;2023-04-06T10:25:52;100270.94;;;6.98;98.05
64551;BME280;50945;44.472;-123.352;2023-04-06T10:28:19;100270.09;;;6.97;97.72
64551;BME280;50945;44.472;-123.352;2023-04-06T10:30:45;100262.97;;;6.96;98.05
64551;BME280;50945;44.472;-123.352;2023-04-06T10:33:16;100262.97;;;6.96;98.27
64551;BME280;50945;44.472;-123.352;2023-04-06T10:35:43;100261.44;;;6.94;98.05
64551;BME280;50945;44.472;-123.352;2023-04-06T10:38:09;100259.72;;;6.93;97.75
64551;BME280;50945;44.472;-123.352;2023-04-06T10:40:38;100257.00;;;6.93;98.07
64551;BME280;50945;44.472;-123.352;2023-04-06T10:43:12;100256.16;;;6.92;98.20
64551;BME280;50945;44.472;-123.352;2023-04-06T10:45:40;100256.16;;;6.92;98.10
64551;BME280;50945;44.472;-123.352;2023-04-06T10:48:17;100242.56;;;6.92;98.62
64551;BME280;50945;44.472;-123.352;2023-04-06T10:50:51;100241.72;;;6.92;98.40
64551;BME280;50945;44.472;-123.352;2023-04-06T10:55:54;100237.28;;;6.91;98.13
64551;BME280;50945;44.472;-123.352;2023-04-06T10:58:24;100231.84;;;6.91;97.98
64551;BME280;50945;44.472;-123.352;2023-04-06T11:00:51;100234.56;;;6.91;98.81
64551;BME280;50945;44.472;-123.352;2023-04-06T11:03:17;100232.88;;;6.90;98.20
64551;BME280;50945;44.472;-123.352;2023-04-06T11:05:47;100231.00;;;6.90;98.49
64551;BME280;50945;44.472;-123.352;2023-04-06T11:08:33;100232.00;;;6.89;98.80
64551;BME280;50945;44.472;-123.352;2023-04-06T11:11:10;100230.16;;;6.90;98.55
64551;BME280;50945;44.472;-123.352;2023-04-06T11:13:43;100220.97;;;6.91;98.39
64551;BME280;50945;44.472;-123.352;2023-04-06T11:19:01;100232.72;;;6.91;98.62
64551;BME280;50945;44.472;-123.352;2023-04-06T11:21:36;100220.97;;;6.91;98.89
64551;BME280;50945;44.472;-123.352;2023-04-06T11:26:46;100218.44;;;6.89;98.59
64551;BME280;50945;44.472;-123.352;2023-04-06T11:29:16;100212.16;;;6.89;98.78
64551;BME280;50945;44.472;-123.352;2023-04-06T11:31:46;100210.28;;;6.89;98.68
64551;BME280;50945;44.472;-123.352;2023-04-06T11:34:22;100207.75;;;6.88;98.58
64551;BME280;50945;44.472;-123.352;2023-04-06T11:36:56;100209.44;;;6.89;98.90
64551;BME280;50945;44.472;-123.352;2023-04-06T11:39:24;100212.16;;;6.89;98.96
64551;BME280;50945;44.472;-123.352;2023-04-06T11:45:15;100209.44;;;6.89;98.92
64551;BME280;50945;44.472;-123.352;2023-04-06T11:47:41;100203.16;;;6.88;98.73
64551;BME280;50945;44.472;-123.352;2023-04-06T11:50:13;100208.59;;;6.88;98.20
64551;BME280;50945;44.472;-123.352;2023-04-06T11:52:40;100203.16;;;6.88;98.77
64551;BME280;50945;44.472;-123.352;2023-04-06T11:55:15;100205.03;;;6.88;98.97
64551;BME280;50945;44.472;-123.352;2023-04-06T11:57:42;100196.00;;;6.87;99.14
64551;BME280;50945;44.472;-123.352;2023-04-06T12:00:09;100198.72;;;6.87;98.92
64551;BME280;50945;44.472;-123.352;2023-04-06T12:02:39;100187.84;;;6.87;99.19
64551;BME280;50945;44.472;-123.352;2023-04-06T12:05:06;100197.72;;;6.88;98.82
64551;BME280;50945;44.472;-123.352;2023-04-06T12:07:33;100183.28;;;6.88;99.45
64551;BME280;50945;44.472;-123.352;2023-04-06T12:10:01;100184.97;;;6.89;99.27
64551;BME280;50945;44.472;-123.352;2023-04-06T12:12:28;100184.13;;;6.88;99.30
64551;BME280;50945;44.472;-123.352;2023-04-06T12:14:55;100178.69;;;6.88;99.18
64551;BME280;50945;44.472;-123.352;2023-04-06T12:17:22;100187.69;;;6.89;99.54
64551;BME280;50945;44.472;-123.352;2023-04-06T12:19:49;100183.97;;;6.90;99.42
64551;BME280;50945;44.472;-123.352;2023-04-06T12:22:15;100170.56;;;6.88;99.67
64551;BME280;50945;44.472;-123.352;2023-04-06T12:24:41;100170.56;;;6.88;99.20
64551;BME280;50945;44.472;-123.352;2023-04-06T12:27:07;100164.06;;;6.89;99.25
64551;BME280;50945;44.472;-123.352;2023-04-06T12:29:34;100162.41;;;6.88;99.79
64551;BME280;50945;44.472;-123.352;2023-04-06T12:32:00;100158.66;;;6.89;99.24
64551;BME280;50945;44.472;-123.352;2023-04-06T12:34:27;100155.09;;;6.89;99.35
64551;BME280;50945;44.472;-123.352;2023-04-06T12:36:53;100156.81;;;6.90;99.88
64551;BME280;50945;44.472;-123.352;2023-04-06T12:39:19;100143.22;;;6.90;99.77
64551;BME280;50945;44.472;-123.352;2023-04-06T12:41:47;100150.34;;;6.91;99.79
64551;BME280;50945;44.472;-123.352;2023-04-06T12:44:13;100153.94;;;6.91;99.78
64551;BME280;50945;44.472;-123.352;2023-04-06T12:46:39;100144.91;;;6.91;99.41